Time;durP1;ratioP1;P1;durP2;ratioP2;P2;SDS_P1;SDS_P2;PMS_P1;PMS_P2;Temp;Humidity;BMP_temperature;BMP_pressure;BME280_temperature;BME280_humidity;BME280_pressure;Samples;Min_cycle;Max_cycle;Signal;HPM_P1;HPM_P2
2023/11/02 00:04:50;;;;;;;0.52;0.20;;;;;;;13.88;65.68;98546.56;10421977;28;20056;-67
2023/11/02 00:09:56;;;;;;;1.00;0.10;;;;;;;13.89;65.48;98531.16;10423429;28;20059;-66
2023/11/02 00:14:59;;;;;;;1.27;0.15;;;;;;;13.93;65.33;98510.72;10412978;28;20045;-67
2023/11/02 00:20:04;;;;;;;0.25;0.25;;;;;;;13.93;64.95;98502.59;10415616;28;20041;-68
2023/11/02 00:25:07;;;;;;;1.55;0.10;;;;;;;13.95;65.25;98500.47;10394944;28;20489;-68
2023/11/02 00:30:09;;;;;;;1.20;0.20;;;;;;;14.05;64.79;98491.72;10397684;28;20052;-67
2023/11/02 00:35:10;;;;;;;0.93;0.10;;;;;;;14.04;64.77;98481.97;10414480;28;20136;-68
2023/11/02 00:40:12;;;;;;;0.73;0.20;;;;;;;14.02;64.76;98468.72;10418880;28;20051;-68
2023/11/02 00:45:14;;;;;;;2.05;0.10;;;;;;;13.96;64.77;98467.00;10421190;28;20042;-68
2023/11/02 00:50:59;;;;;;;2.03;0.22;;;;;;;14.00;64.58;98454.66;10415932;28;20590;-68
2023/11/02 00:56:06;;;;;;;0.35;0.30;;;;;;;14.03;64.37;98454.16;10414472;28;20063;-67
2023/11/02 01:01:10;;;;;;;0.83;0.10;;;;;;;14.05;64.81;98446.59;10427403;28;20049;-67
2023/11/02 01:06:16;;;;;;;1.23;0.40;;;;;;;14.13;63.94;98431.06;10431930;28;20311;-67
2023/11/02 01:11:18;;;;;;;0.60;0.20;;;;;;;14.21;63.84;98422.53;10431857;28;20103;-67
2023/11/02 01:16:20;;;;;;;0.30;0.10;;;;;;;14.31;63.61;98401.06;10427131;28;20063;-67
2023/11/02 01:21:21;;;;;;;5.13;0.20;;;;;;;14.42;63.59;98389.34;10431583;28;20388;-67
2023/11/02 01:26:54;;;;;;;0.50;0.15;;;;;;;14.45;63.58;98380.72;10428975;28;20049;-67
2023/11/02 01:31:55;;;;;;;0.63;0.30;;;;;;;14.41;63.86;98366.06;10422543;28;20556;-68
2023/11/02 01:36:57;;;;;;;0.50;0.20;;;;;;;14.38;63.84;98347.66;10429428;28;20162;-67
2023/11/02 01:42:14;;;;;;;2.00;0.20;;;;;;;14.26;64.10;98319.94;10422107;28;20123;-67
2023/11/02 01:47:35;;;;;;;1.48;0.10;;;;;;;14.15;63.89;98299.22;10429274;28;20481;-67
2023/11/02 01:52:46;;;;;;;4.40;0.20;;;;;;;14.02;64.10;98295.84;10426333;28;20534;-67
2023/11/02 01:57:56;;;;;;;0.52;0.20;;;;;;;13.93;64.15;98256.00;10415978;28;20048;-67
2023/11/02 02:03:14;;;;;;;7.15;0.20;;;;;;;13.72;64.55;98250.28;10438452;28;20515;-68
2023/11/02 02:08:56;;;;;;;3.47;0.75;;;;;;;13.63;64.65;98241.81;10430857;28;20049;-67
2023/11/02 02:14:22;;;;;;;3.17;0.20;;;;;;;13.54;64.85;98237.06;10415276;28;20044;-67
2023/11/02 02:19:49;;;;;;;0.38;0.10;;;;;;;13.49;64.90;98216.22;10414780;28;20046;-68
2023/11/02 02:24:51;;;;;;;0.88;0.10;;;;;;;13.31;65.36;98208.38;10422289;28;20045;-67
2023/11/02 02:30:17;;;;;;;0.30;0.10;;;;;;;13.32;65.15;98181.16;10412831;28;20071;-69
2023/11/02 02:35:25;;;;;;;1.45;0.10;;;;;;;13.12;65.66;98168.16;10428046;28;20118;-68
2023/11/02 02:40:35;;;;;;;0.73;0.20;;;;;;;13.12;65.34;98140.38;10423487;28;20064;-68
2023/11/02 02:45:38;;;;;;;1.05;0.30;;;;;;;13.17;65.10;98140.44;10408354;28;20041;-66
2023/11/02 02:50:42;;;;;;;1.70;0.20;;;;;;;13.04;65.60;98155.91;10403833;28;20073;-68
2023/11/02 02:55:47;;;;;;;2.33;0.20;;;;;;;13.00;65.54;98156.66;10425313;28;20729;-68
2023/11/02 03:00:50;;;;;;;1.23;0.15;;;;;;;12.93;65.72;98147.91;10428245;28;20053;-67
2023/11/02 03:05:54;;;;;;;0.32;0.10;;;;;;;12.97;65.41;98136.34;10428756;28;20055;-67
2023/11/02 03:10:56;;;;;;;1.27;0.10;;;;;;;13.09;65.17;98130.88;10431883;28;20048;-65
2023/11/02 03:16:05;;;;;;;2.95;0.22;;;;;;;13.02;65.45;98116.75;10415474;28;20439;-67
2023/11/02 03:21:07;;;;;;;5.13;0.20;;;;;;;12.95;65.84;98105.31;10404997;28;20047;-67
2023/11/02 03:26:27;;;;;;;0.88;0.20;;;;;;;12.96;65.63;98091.59;10420804;28;20053;-66
2023/11/02 03:31:47;;;;;;;1.73;0.30;;;;;;;12.97;65.43;98095.09;10423325;28;20059;-66
2023/11/02 03:37:04;;;;;;;1.52;0.10;;;;;;;12.99;65.48;98082.19;10413938;28;20052;-67
2023/11/02 03:42:16;;;;;;;0.93;0.10;;;;;;;13.06;65.41;98062.06;10411565;28;20064;-67
2023/11/02 03:47:36;;;;;;;0.10;0.10;;;;;;;13.13;65.02;98048.41;10415987;28;20132;-67
2023/11/02 03:53:02;;;;;;;3.60;0.20;;;;;;;13.12;64.97;98019.78;10430103;28;20121;-67
2023/11/02 03:58:29;;;;;;;4.00;0.20;;;;;;;13.14;64.86;97995.28;10411322;28;20484;-68
2023/11/02 04:03:31;;;;;;;3.45;0.68;;;;;;;13.20;64.43;97989.69;10427870;28;20144;-66
2023/11/02 04:08:39;;;;;;;2.78;0.20;;;;;;;13.24;64.38;97980.00;10428826;28;20621;-67
2023/11/02 04:13:57;;;;;;;1.25;0.20;;;;;;;13.28;64.55;97994.63;10435207;28;20048;-68
2023/11/02 04:19:01;;;;;;;0.20;0.10;;;;;;;13.32;64.41;97996.88;10419270;28;20567;-68
2023/11/02 04:24:03;;;;;;;1.60;0.10;;;;;;;13.37;64.26;97964.53;10407895;28;20045;-66
2023/11/02 04:29:04;;;;;;;2.60;0.10;;;;;;;13.12;64.99;97959.66;10425914;28;20053;-66
2023/11/02 04:34:06;;;;;;;4.95;0.20;;;;;;;12.98;65.49;97951.13;10415801;28;20041;-67
2023/11/02 04:39:07;;;;;;;3.72;0.10;;;;;;;12.92;65.51;97938.66;10414678;28;20049;-67
2023/11/02 04:44:09;;;;;;;1.85;0.50;;;;;;;13.00;65.54;97905.84;10401340;28;20558;-66
2023/11/02 04:49:10;;;;;;;1.63;0.20;;;;;;;12.97;65.42;97892.84;10421062;28;20045;-67
2023/11/02 04:54:23;;;;;;;0.73;0.20;;;;;;;12.87;65.87;97878.19;10425699;28;20964;-67
2023/11/02 04:59:24;;;;;;;4.03;0.10;;;;;;;12.83;65.80;97863.56;10423872;28;20052;-67
2023/11/02 05:04:26;;;;;;;1.85;0.25;;;;;;;12.77;66.14;97848.41;10418707;28;20065;-67
2023/11/02 05:09:27;;;;;;;0.82;0.20;;;;;;;12.56;66.94;97849.22;10423297;28;20095;-67
2023/11/02 05:14:29;;;;;;;1.27;0.20;;;;;;;12.35;67.80;97832.00;10419148;28;20132;-65
2023/11/02 05:19:31;;;;;;;1.25;0.10;;;;;;;11.95;69.01;97823.13;10420891;28;20041;-66
2023/11/02 05:24:32;;;;;;;1.63;0.32;;;;;;;11.77;69.87;97821.47;10438707;28;20091;-64
2023/11/02 05:29:34;;;;;;;1.52;0.20;;;;;;;11.66;69.97;97817.00;10433162;28;20411;-64
2023/11/02 05:34:35;;;;;;;0.60;0.13;;;;;;;11.46;71.07;97820.19;10431763;28;20061;-65
2023/11/02 05:39:37;;;;;;;3.10;0.17;;;;;;;11.42;71.25;97808.28;10416220;28;20045;-62
2023/11/02 05:44:38;;;;;;;1.77;0.20;;;;;;;11.33;72.38;97794.41;10443310;28;20072;-64
2023/11/02 05:49:40;;;;;;;1.23;0.20;;;;;;;11.25;73.00;97782.19;10442777;28;20053;-67
2023/11/02 05:54:41;;;;;;;3.47;0.70;;;;;;;11.20;73.27;97765.97;10471028;28;20043;-68
2023/11/02 05:59:43;;;;;;;0.40;0.10;;;;;;;11.09;74.21;97745.34;10465882;28;20052;-69
2023/11/02 06:04:44;;;;;;;1.02;0.20;;;;;;;11.06;74.29;97735.91;10476399;28;20068;-69
2023/11/02 06:09:45;;;;;;;3.13;0.15;;;;;;;11.10;74.72;97734.38;10468388;28;20028;-69
2023/11/02 06:14:47;;;;;;;2.08;0.30;;;;;;;11.00;74.85;97753.03;10471076;28;20073;-65
2023/11/02 06:19:49;;;;;;;1.85;0.10;;;;;;;11.08;74.85;97766.06;10433038;28;20133;-63
2023/11/02 06:24:50;;;;;;;1.38;0.10;;;;;;;11.06;75.09;97770.06;10420198;28;20037;-63
2023/11/02 06:29:53;;;;;;;1.38;0.45;;;;;;;11.08;75.05;97762.56;10423193;28;20525;-64
2023/11/02 06:34:55;;;;;;;2.67;0.30;;;;;;;11.12;75.38;97728.75;10417365;28;20041;-63
2023/11/02 06:39:56;;;;;;;2.90;0.30;;;;;;;11.16;75.63;97739.81;10419155;28;20052;-64
2023/11/02 06:44:57;;;;;;;1.52;0.25;;;;;;;11.06;76.31;97735.91;10418125;28;20155;-65
2023/11/02 06:49:59;;;;;;;3.60;0.20;;;;;;;11.16;76.43;97732.56;10436141;28;20048;-65
2023/11/02 06:55:00;;;;;;;0.52;0.47;;;;;;;11.23;76.51;97735.91;10420997;28;20040;-64
2023/11/02 07:00:05;;;;;;;3.63;0.30;;;;;;;11.25;76.88;97725.72;10425677;28;20056;-63
2023/11/02 07:05:10;;;;;;;2.28;0.35;;;;;;;11.27;77.61;97715.53;10416498;28;20132;-63
2023/11/02 07:10:14;;;;;;;1.02;0.30;;;;;;;11.28;77.75;97702.91;10403385;28;20044;-65
2023/11/02 07:15:15;;;;;;;2.42;0.20;;;;;;;11.23;77.80;97709.00;10416792;28;20099;-64
2023/11/02 07:20:16;;;;;;;1.58;0.25;;;;;;;11.30;78.42;97682.78;10419441;28;20504;-64
2023/11/02 07:25:18;;;;;;;0.43;0.22;;;;;;;11.38;78.34;97664.59;10430222;28;20045;-63
2023/11/02 07:30:19;;;;;;;1.92;0.30;;;;;;;11.39;78.52;97583.63;10427922;28;20056;-63
2023/11/02 07:35:22;;;;;;;0.30;0.20;;;;;;;11.39;78.87;97534.41;10425317;28;20049;-63
2023/11/02 07:40:24;;;;;;;1.23;0.40;;;;;;;11.37;79.04;97469.31;10422617;28;20109;-63
2023/11/02 07:45:25;;;;;;;0.82;0.15;;;;;;;11.39;79.29;97448.34;10445710;28;20068;-62
2023/11/02 07:50:27;;;;;;;0.38;0.20;;;;;;;11.44;79.12;97464.56;10429359;28;20141;-63
2023/11/02 07:55:29;;;;;;;0.43;0.20;;;;;;;11.39;79.42;97497.56;10430418;28;20084;-63
2023/11/02 08:00:30;;;;;;;0.90;0.20;;;;;;;11.40;79.05;97526.09;10415898;28;20053;-62
2023/11/02 08:05:32;;;;;;;3.05;0.30;;;;;;;11.37;79.48;97523.09;10426729;28;20087;-63
2023/11/02 08:10:34;;;;;;;0.50;0.20;;;;;;;11.56;78.94;97496.69;10408489;28;20095;-62
2023/11/02 08:15:35;;;;;;;1.55;0.10;;;;;;;11.61;78.97;97508.31;10411391;28;20040;-63
2023/11/02 08:20:37;;;;;;;0.47;0.20;;;;;;;11.76;78.86;97493.41;10432843;28;20053;-65
2023/11/02 08:25:38;;;;;;;1.58;0.20;;;;;;;11.88;79.10;97440.22;10423771;28;20037;-63
2023/11/02 08:30:40;;;;;;;1.40;0.20;;;;;;;11.92;79.16;97441.34;10420332;28;20049;-65
2023/11/02 08:35:41;;;;;;;3.03;0.70;;;;;;;11.99;78.96;97452.72;10406577;28;20136;-66
2023/11/02 08:40:43;;;;;;;1.80;0.38;;;;;;;12.04;79.01;97439.28;10412527;28;20120;-66
2023/11/02 08:45:45;;;;;;;1.20;0.32;;;;;;;12.14;78.71;97360.47;10412956;28;20052;-66
2023/11/02 08:50:47;;;;;;;0.80;0.30;;;;;;;12.19;78.79;97402.78;10416422;28;20058;-66
2023/11/02 08:55:48;;;;;;;1.33;0.30;;;;;;;12.24;78.87;97419.81;10388518;28;20047;-67
2023/11/02 09:00:51;;;;;;;1.02;0.20;;;;;;;12.34;78.83;97370.53;10421926;28;20077;-67
2023/11/02 09:05:53;;;;;;;1.15;0.30;;;;;;;12.49;78.63;97392.19;10423416;28;20051;-68
2023/11/02 09:10:54;;;;;;;0.75;0.30;;;;;;;12.59;78.56;97380.66;10428403;28;20068;-66
2023/11/02 09:15:55;;;;;;;1.00;0.20;;;;;;;12.69;78.77;97340.25;10423021;28;20056;-67
2023/11/02 09:20:57;;;;;;;0.63;0.17;;;;;;;12.81;78.52;97360.78;10403042;28;20169;-66
2023/11/02 09:25:59;;;;;;;1.30;0.20;;;;;;;12.84;78.16;97369.16;10415587;28;20045;-66
2023/11/02 09:31:01;;;;;;;0.68;0.28;;;;;;;12.93;78.06;97358.66;10426391;28;20049;-66
2023/11/02 09:36:02;;;;;;;0.57;0.20;;;;;;;12.93;78.14;97363.25;10436574;28;20041;-65
2023/11/02 09:41:04;;;;;;;0.60;0.20;;;;;;;13.05;77.92;97348.47;10443070;28;20380;-66
2023/11/02 09:46:06;;;;;;;0.85;0.25;;;;;;;13.19;77.59;97366.81;10432213;28;20523;-65
2023/11/02 09:51:08;;;;;;;1.85;0.20;;;;;;;13.28;77.60;97351.75;10430429;28;20049;-65
2023/11/02 09:56:10;;;;;;;0.10;0.10;;;;;;;13.31;77.30;97374.69;10427758;28;20080;-65
2023/11/02 10:01:13;;;;;;;1.55;0.10;;;;;;;13.39;77.14;97375.00;10435557;28;20064;-65
2023/11/02 10:06:16;;;;;;;2.55;0.10;;;;;;;13.52;76.82;97354.75;10388296;28;20049;-64
2023/11/02 10:11:19;;;;;;;0.30;0.20;;;;;;;13.57;76.79;97335.06;10444630;28;20048;-66
2023/11/02 10:16:23;;;;;;;0.63;0.10;;;;;;;13.71;76.37;97338.84;10400785;28;20056;-65
2023/11/02 10:21:24;;;;;;;1.58;0.13;;;;;;;13.89;76.15;97330.19;10410721;28;20124;-67
2023/11/02 10:26:28;;;;;;;0.32;0.10;;;;;;;14.10;75.95;97305.84;10415688;28;20048;-69
2023/11/02 10:31:30;;;;;;;0.57;0.00;;;;;;;14.31;75.40;97316.59;10440721;28;20056;-64
2023/11/02 10:36:33;;;;;;;0.13;0.03;;;;;;;14.46;74.89;97336.25;10406786;28;20041;-64
2023/11/02 10:41:35;;;;;;;0.88;0.00;;;;;;;14.78;73.92;97343.19;10406121;28;20050;-64
2023/11/02 10:46:37;;;;;;;0.20;0.10;;;;;;;14.96;73.71;97335.53;10414447;28;20096;-64
2023/11/02 10:51:43;;;;;;;0.05;0.00;;;;;;;15.10;72.91;97333.81;10425141;28;20060;-65
2023/11/02 10:56:51;;;;;;;1.33;0.28;;;;;;;15.24;72.64;97318.59;10428496;28;20076;-65
2023/11/02 11:01:54;;;;;;;1.08;0.40;;;;;;;15.24;72.01;97309.66;10432613;28;20964;-64
2023/11/02 11:06:57;;;;;;;1.40;0.00;;;;;;;15.18;71.73;97297.25;10414044;28;20045;-63
2023/11/02 11:12:00;;;;;;;0.30;0.00;;;;;;;15.17;71.56;97304.56;10414787;28;20041;-63
2023/11/02 11:17:02;;;;;;;1.00;0.10;;;;;;;15.11;71.27;97318.41;10412833;28;20049;-63
2023/11/02 11:22:13;;;;;;;0.60;0.10;;;;;;;15.14;70.87;97318.63;10425823;28;20508;-63
2023/11/02 11:27:29;;;;;;;0.63;0.10;;;;;;;15.11;70.77;97337.34;10417283;28;20377;-63
2023/11/02 11:32:32;;;;;;;0.98;0.10;;;;;;;15.08;70.96;97365.75;10421793;28;20571;-63
2023/11/02 11:43:05;;;;;;;0.20;0.10;;;;;;;15.04;70.95;97351.16;10427575;28;20102;-64
2023/11/02 11:48:10;;;;;;;1.65;0.10;;;;;;;15.03;71.02;97341.47;10411408;28;20049;-63
2023/11/02 11:53:16;;;;;;;0.73;0.15;;;;;;;15.05;70.98;97345.50;10423692;28;20048;-63
2023/11/02 11:58:38;;;;;;;0.10;0.00;;;;;;;14.99;71.16;97329.56;10419357;28;20588;-64
2023/11/02 12:03:39;;;;;;;0.10;0.10;;;;;;;14.95;71.19;97328.50;10413014;28;20043;-64
2023/11/02 12:08:48;;;;;;;2.97;0.40;;;;;;;14.99;70.99;97316.06;10413439;28;20102;-64
2023/11/02 12:13:58;;;;;;;1.85;0.10;;;;;;;14.99;70.82;97318.75;10412414;28;20395;-64
2023/11/02 12:19:01;;;;;;;0.77;0.10;;;;;;;14.94;71.17;97316.88;10409561;28;20047;-63
2023/11/02 12:24:07;;;;;;;0.30;0.25;;;;;;;14.98;71.10;97293.59;10415192;28;20042;-62
2023/11/02 12:29:10;;;;;;;1.02;0.10;;;;;;;14.99;70.97;97311.44;10417686;28;20052;-64
2023/11/02 12:34:14;;;;;;;0.93;0.20;;;;;;;14.92;70.92;97294.72;10428410;28;20499;-63
2023/11/02 12:39:18;;;;;;;0.55;0.10;;;;;;;14.90;71.12;97294.19;10420675;28;20045;-64
2023/11/02 12:44:22;;;;;;;0.85;0.10;;;;;;;14.95;71.22;97314.97;10427802;28;20046;-64
2023/11/02 12:49:27;;;;;;;2.97;0.28;;;;;;;14.91;71.02;97292.28;10416006;28;20136;-64
2023/11/02 12:54:31;;;;;;;1.65;0.10;;;;;;;14.97;70.90;97261.41;10419003;28;20044;-64
2023/11/02 12:59:37;;;;;;;0.70;0.10;;;;;;;14.92;71.21;97242.50;10426127;28;20075;-62
2023/11/02 13:04:53;;;;;;;1.60;0.20;;;;;;;14.93;71.10;97217.91;10422688;28;20668;-63
2023/11/02 13:10:13;;;;;;;1.53;0.10;;;;;;;14.96;71.09;97230.84;10421434;28;20461;-61
2023/11/02 13:15:16;;;;;;;1.48;0.10;;;;;;;14.97;71.10;97228.94;10432602;28;20071;-61
2023/11/02 13:20:19;;;;;;;1.13;0.10;;;;;;;14.96;70.93;97238.97;10418117;28;20045;-60
2023/11/02 13:25:21;;;;;;;1.20;0.00;;;;;;;14.96;71.27;97276.03;10406486;28;20042;-61
2023/11/02 13:30:23;;;;;;;0.60;0.10;;;;;;;14.90;70.99;97271.75;10435143;28;20179;-63
2023/11/02 13:35:25;;;;;;;0.82;0.10;;;;;;;14.91;70.98;97266.06;10431475;28;20057;-63
2023/11/02 13:40:27;;;;;;;1.13;0.10;;;;;;;14.94;70.76;97257.38;10426127;28;20048;-62
2023/11/02 13:45:31;;;;;;;0.40;0.10;;;;;;;14.91;70.31;97251.69;10421812;28;20053;-62
2023/11/02 13:50:33;;;;;;;1.33;0.63;;;;;;;14.96;70.29;97233.56;10412178;28;20075;-62
2023/11/02 13:55:35;;;;;;;1.70;0.20;;;;;;;15.01;70.03;97221.91;10407323;28;20052;-62
2023/11/02 14:00:37;;;;;;;1.10;0.15;;;;;;;14.99;69.74;97229.50;10424839;28;20045;-62
2023/11/02 14:05:38;;;;;;;2.17;0.22;;;;;;;14.99;69.73;97218.69;10440982;28;20096;-63
2023/11/02 14:10:40;;;;;;;2.22;0.10;;;;;;;14.93;69.77;97225.19;10423811;28;20087;-63
2023/11/02 14:15:42;;;;;;;0.60;0.22;;;;;;;14.84;69.45;97217.66;10446722;28;20109;-63
2023/11/02 14:20:44;;;;;;;1.40;0.20;;;;;;;14.83;69.06;97226.06;10432621;28;20618;-62
2023/11/02 14:25:46;;;;;;;0.93;0.20;;;;;;;14.83;69.00;97221.47;10436079;28;20041;-63
2023/11/02 14:30:49;;;;;;;2.90;0.20;;;;;;;14.82;68.91;97189.31;10438927;28;20084;-63
2023/11/02 14:35:51;;;;;;;0.73;0.08;;;;;;;14.81;69.02;97193.91;10397161;28;20041;-63
2023/11/02 14:40:55;;;;;;;1.33;0.30;;;;;;;14.77;68.82;97197.44;10404889;28;20061;-63
2023/11/02 14:45:57;;;;;;;2.15;0.10;;;;;;;14.73;68.64;97199.09;10403473;28;20048;-63
2023/11/02 14:50:59;;;;;;;1.00;0.10;;;;;;;14.74;68.34;97185.31;10395146;28;20396;-63
2023/11/02 14:56:01;;;;;;;3.60;0.10;;;;;;;14.74;68.52;97190.72;10404360;28;20876;-63
2023/11/02 15:01:03;;;;;;;1.45;0.20;;;;;;;14.72;68.43;97182.06;10419500;28;20076;-63
2023/11/02 15:06:04;;;;;;;0.40;0.10;;;;;;;14.71;68.52;97201.28;10426047;28;20041;-63
2023/11/02 15:11:06;;;;;;;3.13;0.17;;;;;;;14.62;68.17;97214.59;10417233;28;20085;-63
2023/11/02 15:16:09;;;;;;;1.20;0.30;;;;;;;14.62;67.89;97226.19;10430960;28;20584;-63
2023/11/02 15:21:11;;;;;;;1.70;0.10;;;;;;;14.63;67.91;97218.88;10423728;28;20044;-63
2023/11/02 15:26:19;;;;;;;1.15;0.10;;;;;;;14.56;67.84;97223.78;10421010;28;20542;-63
2023/11/02 15:31:22;;;;;;;1.40;0.10;;;;;;;14.61;67.74;97207.56;10436432;28;20076;-62
2023/11/02 15:36:24;;;;;;;0.75;0.10;;;;;;;14.56;67.84;97203.00;10434902;28;20466;-62
2023/11/02 15:41:25;;;;;;;0.25;0.00;;;;;;;14.54;67.71;97186.22;10418712;28;20059;-62
2023/11/02 15:46:27;;;;;;;1.40;0.10;;;;;;;14.50;67.74;97181.66;10384725;28;20041;-64
2023/11/02 15:51:28;;;;;;;1.67;0.10;;;;;;;14.44;67.54;97160.06;10392654;28;20053;-63
2023/11/02 15:56:31;;;;;;;1.80;0.10;;;;;;;14.40;67.48;97172.53;10417165;28;20048;-63
2023/11/02 16:01:32;;;;;;;1.17;0.38;;;;;;;14.35;67.57;97159.03;10437555;28;20684;-63
2023/11/02 16:06:34;;;;;;;3.08;0.10;;;;;;;14.31;67.29;97160.66;10420849;28;20041;-70
2023/11/02 16:11:42;;;;;;;1.35;0.10;;;;;;;14.21;67.11;97169.63;10408788;28;20140;-69
2023/11/02 16:16:44;;;;;;;2.78;0.10;;;;;;;14.19;67.19;97169.09;10418451;28;20045;-70
2023/11/02 16:21:46;;;;;;;2.03;0.10;;;;;;;14.18;67.03;97194.53;10427288;28;20058;-69
2023/11/02 16:26:49;;;;;;;1.15;0.00;;;;;;;14.20;67.06;97161.84;10413282;28;20041;-65
2023/11/02 16:31:50;;;;;;;0.10;0.00;;;;;;;14.13;66.82;97180.22;10375572;28;20394;-69
2023/11/02 16:36:53;;;;;;;3.28;0.20;;;;;;;14.12;66.90;97197.50;10381233;28;20136;-68
2023/11/02 16:41:54;;;;;;;0.30;0.05;;;;;;;14.09;66.34;97217.78;10388697;28;20079;-70
2023/11/02 16:46:58;;;;;;;0.32;0.10;;;;;;;14.11;66.59;97218.31;10382858;28;20102;-67
2023/11/02 16:52:03;;;;;;;0.38;0.10;;;;;;;14.09;66.19;97217.78;10415216;28;20508;-70
2023/11/02 16:57:05;;;;;;;0.30;0.10;;;;;;;14.12;66.08;97225.34;10395335;28;20432;-68
2023/11/02 17:02:11;;;;;;;1.17;0.20;;;;;;;14.11;66.12;97212.13;10394862;28;20053;-68
2023/11/02 17:07:12;;;;;;;1.05;0.15;;;;;;;14.08;65.89;97200.78;10399446;28;20049;-68
2023/11/02 17:12:14;;;;;;;0.40;0.30;;;;;;;14.02;65.80;97207.28;10393843;28;20092;-65
2023/11/02 17:17:15;;;;;;;1.33;0.20;;;;;;;13.99;65.64;97221.31;10393412;28;20049;-68
2023/11/02 17:22:20;;;;;;;0.73;0.08;;;;;;;13.97;65.90;97209.19;10385714;28;20052;-66
2023/11/02 17:27:21;;;;;;;1.05;0.15;;;;;;;13.88;65.80;97225.13;10403903;28;20045;-68
2023/11/02 17:32:23;;;;;;;3.72;0.20;;;;;;;13.83;65.71;97225.16;10374152;28;20053;-68
2023/11/02 17:37:24;;;;;;;0.38;0.13;;;;;;;13.79;65.44;97224.91;10385328;28;20061;-65
2023/11/02 17:42:25;;;;;;;0.95;0.10;;;;;;;13.72;65.48;97234.38;10375719;28;20044;-70
2023/11/02 17:47:27;;;;;;;0.75;0.20;;;;;;;13.70;65.51;97240.03;10387164;28;20053;-69
2023/11/02 17:52:28;;;;;;;2.40;0.73;;;;;;;13.66;65.55;97239.78;10381907;28;20131;-69
2023/11/02 17:57:30;;;;;;;0.73;0.28;;;;;;;13.58;65.42;97244.91;10400227;28;20037;-69
2023/11/02 18:02:32;;;;;;;0.10;0.10;;;;;;;13.57;65.46;97241.41;10409451;28;20504;-67
2023/11/02 18:07:33;;;;;;;2.17;0.17;;;;;;;13.55;65.44;97226.59;10399746;28;20479;-68
2023/11/02 18:12:35;;;;;;;1.92;0.20;;;;;;;13.45;65.48;97241.69;10382220;28;20053;-66
2023/11/02 18:17:36;;;;;;;1.67;0.10;;;;;;;13.47;65.37;97242.25;10398992;28;20707;-66
2023/11/02 18:22:38;;;;;;;1.40;0.30;;;;;;;13.45;65.64;97235.50;10396446;28;20045;-70
2023/11/02 18:27:41;;;;;;;3.08;0.20;;;;;;;13.40;65.57;97238.19;10399570;28;20041;-68
2023/11/02 18:32:43;;;;;;;3.63;0.20;;;;;;;13.34;65.64;97242.78;10403675;28;20591;-67
2023/11/02 18:37:45;;;;;;;1.20;0.32;;;;;;;13.32;65.46;97244.94;10398002;28;20136;-66
2023/11/02 18:42:46;;;;;;;0.98;0.10;;;;;;;13.29;65.67;97243.59;10382126;28;20046;-68
2023/11/02 18:47:47;;;;;;;0.32;0.20;;;;;;;13.33;65.53;97245.75;10397365;28;20076;-66
2023/11/02 18:52:49;;;;;;;0.30;0.10;;;;;;;13.38;65.41;97235.75;10403749;28;20053;-67
2023/11/02 18:57:51;;;;;;;1.30;0.20;;;;;;;13.43;65.22;97233.06;10403688;28;20464;-68
2023/11/02 19:02:54;;;;;;;1.13;0.10;;;;;;;13.40;65.11;97220.09;10404072;28;20099;-65
2023/11/02 19:07:55;;;;;;;1.65;0.10;;;;;;;13.40;64.90;97228.19;10401086;28;20577;-68
2023/11/02 19:12:57;;;;;;;3.92;0.20;;;;;;;13.46;64.73;97245.19;10400491;28;20404;-69
2023/11/02 19:18:01;;;;;;;1.30;0.10;;;;;;;13.42;64.83;97246.81;10392713;28;20197;-67
2023/11/02 19:23:02;;;;;;;0.95;0.20;;;;;;;13.47;65.02;97252.22;10397052;28;20084;-66
2023/11/02 19:28:04;;;;;;;1.55;0.30;;;;;;;13.35;64.79;97244.41;10400951;28;20037;-67
2023/11/02 19:33:05;;;;;;;2.90;0.15;;;;;;;13.36;65.16;97254.09;10395491;28;20061;-67
2023/11/02 19:38:07;;;;;;;1.92;0.17;;;;;;;13.28;65.30;97273.50;10392521;28;20061;-66
2023/11/02 19:43:09;;;;;;;1.20;0.20;;;;;;;13.20;65.09;97285.63;10397986;28;20528;-68
2023/11/02 19:48:12;;;;;;;2.97;0.63;;;;;;;13.10;65.04;97309.91;10409344;28;20046;-67
2023/11/02 19:53:14;;;;;;;1.30;0.10;;;;;;;12.98;65.54;97293.97;10410509;28;20052;-66
2023/11/02 19:58:16;;;;;;;0.95;0.20;;;;;;;12.86;65.56;97290.72;10434567;28;20140;-68
2023/11/02 20:03:18;;;;;;;1.10;0.17;;;;;;;12.75;65.61;97287.19;10411382;28;20048;-67
2023/11/02 20:08:20;;;;;;;4.55;0.20;;;;;;;12.66;65.68;97296.88;10431377;28;20059;-67
2023/11/02 20:13:25;;;;;;;2.70;0.20;;;;;;;12.58;65.60;97297.38;10413805;28;20060;-66
2023/11/02 20:18:26;;;;;;;1.08;0.17;;;;;;;12.50;65.81;97307.59;10415588;28;20045;-65
2023/11/02 20:23:28;;;;;;;1.27;0.17;;;;;;;12.39;65.73;97305.94;10434171;28;20037;-65
2023/11/02 20:28:30;;;;;;;1.35;0.20;;;;;;;12.35;65.38;97304.03;10401122;28;20047;-68
2023/11/02 20:33:31;;;;;;;0.52;0.20;;;;;;;12.26;65.61;97322.56;10414835;28;20566;-65
2023/11/02 20:38:34;;;;;;;1.30;0.15;;;;;;;12.20;64.97;97326.31;10430844;28;20049;-67
2023/11/02 20:43:35;;;;;;;0.35;0.10;;;;;;;12.17;65.07;97340.31;10432876;28;20037;-66
2023/11/02 20:48:38;;;;;;;1.98;0.20;;;;;;;12.03;64.85;97329.19;10436428;28;20041;-66
2023/11/02 20:53:40;;;;;;;3.13;0.17;;;;;;;11.92;64.35;97324.78;10432323;28;20110;-67
2023/11/02 20:58:41;;;;;;;1.30;0.10;;;;;;;11.92;64.35;97322.91;10414291;28;20769;-65
2023/11/02 21:03:44;;;;;;;2.38;0.20;;;;;;;11.86;63.96;97324.72;10431394;28;20045;-67
2023/11/02 21:08:45;;;;;;;1.38;0.20;;;;;;;11.74;63.83;97305.28;10419633;28;20045;-67
2023/11/02 21:13:47;;;;;;;1.80;0.50;;;;;;;11.68;63.62;97311.69;10434118;28;20069;-67
2023/11/02 21:18:48;;;;;;;0.88;0.15;;;;;;;11.61;63.72;97311.91;10435502;28;20052;-66
2023/11/02 21:23:50;;;;;;;3.28;0.30;;;;;;;11.59;64.25;97313.22;10436678;28;20053;-67
2023/11/02 21:28:51;;;;;;;3.33;0.20;;;;;;;11.46;64.48;97301.03;10424600;28;20057;-67
2023/11/02 21:33:53;;;;;;;0.65;0.08;;;;;;;11.39;64.34;97309.31;10441221;28;20045;-65
2023/11/02 21:38:54;;;;;;;3.08;0.10;;;;;;;11.35;64.45;97321.66;10439607;28;20041;-66
2023/11/02 21:43:58;;;;;;;1.63;0.40;;;;;;;11.26;64.46;97339.34;10442679;28;20045;-66
2023/11/02 21:49:00;;;;;;;3.28;0.20;;;;;;;11.20;64.91;97351.09;10423051;28;20056;-65
2023/11/02 21:54:01;;;;;;;2.55;0.25;;;;;;;11.16;65.06;97349.97;10422754;28;20072;-66
2023/11/02 21:59:08;;;;;;;2.47;0.40;;;;;;;11.23;64.58;97351.38;10439669;28;20508;-64
2023/11/02 22:04:09;;;;;;;3.67;0.20;;;;;;;11.18;64.92;97353.25;10439433;28;20053;-65
2023/11/02 22:09:14;;;;;;;3.33;0.20;;;;;;;11.13;65.39;97363.94;10440674;28;20442;-64
2023/11/02 22:14:16;;;;;;;3.63;0.30;;;;;;;11.03;65.67;97356.56;10439047;28;20059;-68
2023/11/02 22:19:17;;;;;;;2.53;0.25;;;;;;;11.03;65.84;97353.88;10442496;28;20478;-69
2023/11/02 22:24:19;;;;;;;2.60;0.30;;;;;;;11.01;66.07;97334.50;10440898;28;20055;-68
2023/11/02 22:29:20;;;;;;;3.55;0.40;;;;;;;11.02;65.97;97328.88;10422638;28;20492;-67
2023/11/02 22:34:22;;;;;;;2.00;0.22;;;;;;;10.97;66.43;97319.97;10441750;28;20124;-67
2023/11/02 22:39:24;;;;;;;1.92;0.30;;;;;;;10.94;66.23;97318.59;10440385;28;20132;-66
2023/11/02 22:44:25;;;;;;;4.28;0.30;;;;;;;10.92;66.36;97309.97;10442659;28;20106;-66
2023/11/02 22:49:27;;;;;;;3.70;0.20;;;;;;;10.85;66.55;97310.16;10440785;28;20047;-65
2023/11/02 22:54:28;;;;;;;5.78;0.63;;;;;;;10.74;66.70;97308.41;10441384;28;20500;-65
2023/11/02 22:59:29;;;;;;;2.55;0.40;;;;;;;10.63;67.45;97299.44;10439188;28;20511;-65
2023/11/02 23:04:31;;;;;;;3.90;0.20;;;;;;;10.64;66.83;97298.41;10436984;28;20383;-65
2023/11/02 23:09:32;;;;;;;7.13;0.95;;;;;;;10.59;67.17;97310.97;10438187;28;20037;-66
2023/11/02 23:14:34;;;;;;;7.07;1.05;;;;;;;10.45;67.45;97305.97;10410247;28;20077;-66
2023/11/02 23:19:37;;;;;;;1.85;0.20;;;;;;;10.46;67.92;97326.38;10398759;28;20463;-65
2023/11/02 23:24:40;;;;;;;2.50;0.30;;;;;;;10.43;67.95;97324.19;10398666;28;20073;-64
2023/11/02 23:29:41;;;;;;;3.53;0.30;;;;;;;10.38;68.10;97329.50;10398533;28;20100;-66
2023/11/02 23:34:44;;;;;;;2.90;0.65;;;;;;;10.40;67.75;97340.00;10398859;28;20523;-66
2023/11/02 23:39:46;;;;;;;3.60;0.40;;;;;;;10.29;68.19;97339.84;10402413;28;20517;-65